createdAt,value
2023-01-08T00:02:10.765Z,56.33
2023-01-08T00:04:39.264Z,68.00
2023-01-08T00:09:52.284Z,61.08
2023-01-08T00:12:21.337Z,59.83
2023-01-08T00:14:48.610Z,68.22
2023-01-08T00:17:16.995Z,73.03
2023-01-08T00:19:47.726Z,59.88
2023-01-08T00:22:15.424Z,62.22
2023-01-08T00:24:46.983Z,66.47
2023-01-08T00:27:14.302Z,64.95
2023-01-08T00:29:48.572Z,69.47
2023-01-08T00:32:17.885Z,65.80
2023-01-08T00:34:47.740Z,56.88
2023-01-08T00:37:19.016Z,64.30
2023-01-08T00:39:55.706Z,64.90
2023-01-08T00:42:25.759Z,73.85
2023-01-08T00:44:57.318Z,56.35
2023-01-08T00:47:26.577Z,74.28
2023-01-08T00:52:38.231Z,62.03
2023-01-08T00:55:09.391Z,66.45
2023-01-08T00:57:39.151Z,69.62
2023-01-08T01:00:15.344Z,63.35
2023-01-08T01:02:45.899Z,56.17
2023-01-08T01:05:17.556Z,60.08
2023-01-08T01:07:47.302Z,59.20
2023-01-08T01:10:20.224Z,68.35
2023-01-08T01:12:51.655Z,59.42
2023-01-08T01:15:22.923Z,59.97
2023-01-08T01:17:50.812Z,68.35
2023-01-08T01:20:18.575Z,49.95
2023-01-08T01:22:50.238Z,64.85
2023-01-08T01:25:17.930Z,64.12
2023-01-08T01:27:47.448Z,68.55
2023-01-08T01:30:16.343Z,64.90
2023-01-08T01:32:44.288Z,61.65
2023-01-08T01:35:15.222Z,53.22
2023-01-08T01:37:42.802Z,56.97
2023-01-08T01:40:13.050Z,60.10
2023-01-08T01:42:43.168Z,53.35
2023-01-08T01:45:24.687Z,57.00
2023-01-08T01:48:04.861Z,51.47
2023-01-08T01:50:52.310Z,52.03
2023-01-08T01:53:21.465Z,57.45
2023-01-08T01:55:49.682Z,57.67
2023-01-08T01:58:27.674Z,53.33
2023-01-08T02:01:01.806Z,51.37
2023-01-08T02:06:41.173Z,53.97
2023-01-08T02:09:37.916Z,58.35
2023-01-08T02:12:26.093Z,50.78
2023-01-08T02:15:18.566Z,54.00
2023-01-08T02:18:34.175Z,51.30
2023-01-08T02:21:14.096Z,65.68
2023-01-08T02:24:10.034Z,55.65
2023-01-08T02:26:40.455Z,54.45
2023-01-08T02:29:23.689Z,45.47
2023-01-08T02:31:52.321Z,58.13
2023-01-08T02:34:20.702Z,59.28
2023-01-08T02:36:56.984Z,51.47
2023-01-08T02:39:49.691Z,48.15
2023-01-08T02:42:33.462Z,51.92
2023-01-08T02:45:30.684Z,54.08
2023-01-08T02:48:13.358Z,49.47
2023-01-08T02:51:06.448Z,43.20
2023-01-08T02:53:42.575Z,53.85
2023-01-08T02:56:18.270Z,51.78
2023-01-08T02:58:48.070Z,45.92
2023-01-08T03:01:20.441Z,53.35
2023-01-08T03:04:04.186Z,49.10
2023-01-08T03:06:34.193Z,62.40
2023-01-08T03:09:03.008Z,56.33
2023-01-08T03:11:38.306Z,58.20
2023-01-08T03:14:20.963Z,56.50
2023-01-08T03:17:22.336Z,47.78
2023-01-08T03:20:24.126Z,48.65
2023-01-08T03:22:56.665Z,50.45
2023-01-08T03:25:28.095Z,51.47
2023-01-08T03:28:03.423Z,52.25
2023-01-08T03:30:32.257Z,50.22
2023-01-08T03:33:03.202Z,47.15
2023-01-08T03:35:34.276Z,52.08
2023-01-08T03:38:18.093Z,49.28
2023-01-08T03:40:59.605Z,55.97
2023-01-08T03:43:29.250Z,49.15
2023-01-08T03:46:01.564Z,58.65
2023-01-08T03:48:31.498Z,48.20
2023-01-08T03:51:02.631Z,47.75
2023-01-08T03:53:31.215Z,54.08
2023-01-08T03:56:00.036Z,68.28
2023-01-08T03:58:33.334Z,48.78
2023-01-08T04:01:09.737Z,49.53
2023-01-08T04:03:42.064Z,50.40
2023-01-08T04:06:09.480Z,54.88
2023-01-08T04:08:37.363Z,52.55
2023-01-08T04:11:04.825Z,48.17
2023-01-08T04:13:35.452Z,45.97
2023-01-08T04:16:06.724Z,46.03
2023-01-08T04:18:35.124Z,58.45
2023-01-08T04:21:08.707Z,53.83
2023-01-08T04:23:38.564Z,52.95
2023-01-08T04:26:09.683Z,58.87
2023-01-08T04:28:40.181Z,55.63
2023-01-08T04:31:10.774Z,49.78
2023-01-08T04:33:42.387Z,45.00
2023-01-08T04:36:13.751Z,51.28
2023-01-08T04:38:42.728Z,50.10
2023-01-08T04:41:13.818Z,55.92
2023-01-08T04:43:44.242Z,56.47
2023-01-08T04:46:15.500Z,56.28
2023-01-08T04:48:44.550Z,51.10
2023-01-08T04:51:13.676Z,58.25
2023-01-08T04:53:45.940Z,54.30
2023-01-08T04:56:14.277Z,53.08
2023-01-08T04:58:42.760Z,52.60
2023-01-08T05:01:19.464Z,54.55
2023-01-08T05:03:52.759Z,52.78
2023-01-08T05:06:23.335Z,53.50
2023-01-08T05:08:51.897Z,57.17
2023-01-08T05:11:23.892Z,53.78
2023-01-08T05:13:55.609Z,56.40
2023-01-08T05:16:26.138Z,50.40
2023-01-08T05:18:55.977Z,47.13
2023-01-08T05:21:25.255Z,53.85
2023-01-08T05:23:56.806Z,52.38
2023-01-08T05:26:27.349Z,49.85
2023-01-08T05:28:55.389Z,53.83
2023-01-08T05:31:23.762Z,46.50
2023-01-08T05:34:03.228Z,52.95
2023-01-08T05:36:31.167Z,47.53
2023-01-08T05:39:02.656Z,52.62
2023-01-08T05:41:32.062Z,53.13
2023-01-08T05:44:02.074Z,49.38
2023-01-08T05:46:33.390Z,46.30
2023-01-08T05:49:02.635Z,47.47
2023-01-08T05:51:30.803Z,53.08
2023-01-08T05:53:58.121Z,48.90
2023-01-08T05:56:28.120Z,50.70
2023-01-08T05:58:56.178Z,50.17
2023-01-08T06:01:23.472Z,51.30
2023-01-08T06:03:56.313Z,50.55
2023-01-08T06:06:23.899Z,50.17
2023-01-08T06:08:58.907Z,51.65
2023-01-08T06:11:30.053Z,49.72
2023-01-08T06:13:59.051Z,60.30
2023-01-08T06:16:28.030Z,49.50
2023-01-08T06:18:56.602Z,48.55
2023-01-08T06:21:26.352Z,48.97
2023-01-08T06:23:55.850Z,48.15
2023-01-08T06:26:23.824Z,49.20
2023-01-08T06:28:52.633Z,53.65
2023-01-08T06:31:21.057Z,62.70
2023-01-08T06:33:50.462Z,45.03
2023-01-08T06:36:21.992Z,51.72
2023-01-08T06:38:50.444Z,51.50
2023-01-08T06:41:20.383Z,54.55
2023-01-08T06:43:47.849Z,51.10
2023-01-08T06:46:15.861Z,54.90
2023-01-08T06:48:48.497Z,49.58
2023-01-08T06:51:18.192Z,48.03
2023-01-08T06:53:51.965Z,54.15
2023-01-08T06:56:23.268Z,56.60
2023-01-08T06:58:55.458Z,47.13
2023-01-08T07:01:26.925Z,62.67
2023-01-08T07:03:56.041Z,59.95
2023-01-08T07:06:25.332Z,53.28
2023-01-08T07:08:52.782Z,51.13
2023-01-08T07:11:20.359Z,55.28
2023-01-08T07:13:50.788Z,48.50
2023-01-08T07:16:25.236Z,52.78
2023-01-08T07:18:53.083Z,57.00
2023-01-08T07:21:26.173Z,48.87
2023-01-08T07:23:56.077Z,49.40
2023-01-08T07:26:24.941Z,44.17
2023-01-08T07:28:56.360Z,52.78
2023-01-08T07:31:25.329Z,46.45
2023-01-08T07:33:56.503Z,50.83
2023-01-08T07:36:25.110Z,48.22
2023-01-08T07:38:56.295Z,52.30
2023-01-08T07:41:25.190Z,57.60
2023-01-08T07:43:55.507Z,55.12
2023-01-08T07:46:23.428Z,45.75
2023-01-08T07:48:55.786Z,49.60
2023-01-08T07:51:23.880Z,55.70
2023-01-08T07:53:53.422Z,48.95
2023-01-08T07:56:26.717Z,45.97
2023-01-08T07:58:54.911Z,52.30
2023-01-08T08:01:27.028Z,57.20
2023-01-08T08:03:58.516Z,56.10
2023-01-08T08:06:28.926Z,45.78
2023-01-08T08:09:02.414Z,41.20
2023-01-08T08:11:33.133Z,52.03
2023-01-08T08:14:10.220Z,51.92
2023-01-08T08:16:40.947Z,54.55
2023-01-08T08:19:12.855Z,47.67
2023-01-08T08:21:43.399Z,52.65
2023-01-08T08:24:12.308Z,47.35
2023-01-08T08:26:45.101Z,48.35
2023-01-08T08:29:18.366Z,48.38
2023-01-08T08:31:47.881Z,48.17
2023-01-08T08:34:20.504Z,45.35
2023-01-08T08:36:57.160Z,40.80
2023-01-08T08:39:27.000Z,44.00
2023-01-08T08:41:55.627Z,44.63
2023-01-08T08:44:27.485Z,40.97
2023-01-08T08:46:57.788Z,43.42
2023-01-08T08:49:26.249Z,45.17
2023-01-08T08:51:56.895Z,38.95
2023-01-08T08:54:28.627Z,44.05
2023-01-08T08:56:57.270Z,43.75
2023-01-08T08:59:25.710Z,42.50
2023-01-08T09:01:55.952Z,42.65
2023-01-08T09:04:27.828Z,45.17
2023-01-08T09:06:56.630Z,38.90
2023-01-08T09:09:29.929Z,39.08
2023-01-08T09:11:58.148Z,43.17
2023-01-08T09:14:27.340Z,41.75
2023-01-08T09:16:56.789Z,40.78
2023-01-08T09:19:27.117Z,40.17
2023-01-08T09:21:55.970Z,32.75
2023-01-08T09:24:24.855Z,40.47
2023-01-08T09:26:57.728Z,34.85
2023-01-08T09:29:27.153Z,45.47
2023-01-08T09:31:55.720Z,34.85
2023-01-08T09:34:29.023Z,37.90
2023-01-08T09:37:01.458Z,38.95
2023-01-08T09:39:33.143Z,34.20
2023-01-08T09:42:09.742Z,34.30
2023-01-08T09:44:41.578Z,29.75
2023-01-08T09:47:39.767Z,30.77
2023-01-08T09:50:16.524Z,34.83
2023-01-08T09:52:49.956Z,32.47
2023-01-08T09:55:18.917Z,36.35
2023-01-08T09:57:47.719Z,31.20
2023-01-08T10:00:27.667Z,29.45
2023-01-08T10:02:59.808Z,33.45
2023-01-08T10:05:33.189Z,29.23
2023-01-08T10:08:04.936Z,29.27
2023-01-08T10:10:38.955Z,28.98
2023-01-08T10:13:08.782Z,28.58
2023-01-08T10:15:37.829Z,26.02
2023-01-08T10:18:14.441Z,25.65
2023-01-08T10:20:44.157Z,28.98
2023-01-08T10:23:15.572Z,30.08
2023-01-08T10:26:03.625Z,29.95
2023-01-08T10:28:40.001Z,26.65
2023-01-08T10:31:17.533Z,28.87
2023-01-08T10:33:52.717Z,29.65
2023-01-08T10:36:28.701Z,28.60
2023-01-08T10:39:02.282Z,27.87
2023-01-08T10:41:37.116Z,27.40
2023-01-08T10:46:51.731Z,24.30
2023-01-08T10:49:37.084Z,25.48
2023-01-08T10:52:23.438Z,27.30
2023-01-08T10:54:52.758Z,29.52
2023-01-08T10:57:32.348Z,25.90
2023-01-08T11:00:02.269Z,26.43
2023-01-08T11:02:39.697Z,24.83
2023-01-08T11:05:11.417Z,30.42
2023-01-08T11:07:40.967Z,30.77
2023-01-08T11:10:30.482Z,34.80
2023-01-08T11:13:02.208Z,25.90
2023-01-08T11:15:42.275Z,33.92
2023-01-08T11:18:20.921Z,29.63
2023-01-08T11:20:49.754Z,33.15
2023-01-08T11:23:27.687Z,25.73
2023-01-08T11:26:32.607Z,28.40
2023-01-08T11:29:14.826Z,21.33
2023-01-08T11:31:56.032Z,24.55
2023-01-08T11:35:03.484Z,36.10
2023-01-08T11:37:36.287Z,26.40
2023-01-08T11:40:19.625Z,21.15
2023-01-08T11:43:25.369Z,27.13
2023-01-08T11:46:23.789Z,23.90
2023-01-08T11:49:25.422Z,23.73
2023-01-08T11:52:24.606Z,22.33
2023-01-08T11:55:23.217Z,20.70
2023-01-08T11:58:11.648Z,21.40
2023-01-08T12:01:04.830Z,23.95
2023-01-08T12:03:53.311Z,20.10
2023-01-08T12:06:53.438Z,19.30
2023-01-08T12:09:40.485Z,22.52
2023-01-08T12:12:28.502Z,18.80
2023-01-08T12:15:29.622Z,19.80
2023-01-08T12:18:41.133Z,18.52
2023-01-08T12:21:26.753Z,18.52
2023-01-08T12:24:22.098Z,21.05
2023-01-08T12:27:10.089Z,21.77
2023-01-08T12:30:02.050Z,18.12
2023-01-08T12:32:55.962Z,23.73
2023-01-08T12:35:40.082Z,21.95
2023-01-08T12:38:34.338Z,18.27
2023-01-08T12:41:25.825Z,21.17
2023-01-08T12:44:12.396Z,24.25
2023-01-08T12:46:45.101Z,22.23
2023-01-08T12:49:25.607Z,22.27
2023-01-08T12:52:12.183Z,23.12
2023-01-08T12:55:47.129Z,24.63
2023-01-08T12:58:43.805Z,21.17
2023-01-08T13:01:44.962Z,20.65
2023-01-08T13:04:15.267Z,22.10
2023-01-08T13:07:05.294Z,23.30
2023-01-08T13:09:34.807Z,27.67
2023-01-08T13:12:03.279Z,26.65
2023-01-08T13:15:03.513Z,25.10
2023-01-08T13:17:39.233Z,27.33
2023-01-08T13:20:09.005Z,28.00
2023-01-08T13:22:41.581Z,29.67
2023-01-08T13:25:27.059Z,28.92
2023-01-08T13:27:57.338Z,27.13
2023-01-08T13:30:43.548Z,27.95
2023-01-08T13:33:39.974Z,31.10
2023-01-08T13:36:25.765Z,28.67
2023-01-08T13:41:55.233Z,21.23
2023-01-08T13:44:29.967Z,32.20
2023-01-08T13:47:04.963Z,27.65
2023-01-08T13:50:06.311Z,26.45
2023-01-08T13:52:43.562Z,29.58
2023-01-08T13:55:24.430Z,31.62
2023-01-08T13:58:02.954Z,26.02
2023-01-08T14:00:48.134Z,27.70
2023-01-08T14:03:35.606Z,29.37
2023-01-08T14:06:30.553Z,25.23
2023-01-08T14:09:05.512Z,29.15
2023-01-08T14:11:47.892Z,27.62
2023-01-08T14:14:24.014Z,29.55
2023-01-08T14:16:59.763Z,27.80
2023-01-08T14:19:31.461Z,26.98
2023-01-08T14:22:04.355Z,30.17
2023-01-08T14:24:37.293Z,29.73
2023-01-08T14:27:05.540Z,27.08
2023-01-08T14:29:39.356Z,29.40
2023-01-08T14:32:16.587Z,29.10
2023-01-08T14:34:48.828Z,25.33
2023-01-08T14:37:19.411Z,30.65
2023-01-08T14:39:55.113Z,25.42
2023-01-08T14:42:44.464Z,25.23
2023-01-08T14:45:28.960Z,28.85
2023-01-08T14:48:01.936Z,26.70
2023-01-08T14:50:42.341Z,29.40
2023-01-08T14:53:26.317Z,22.58
2023-01-08T14:55:57.526Z,29.50
2023-01-08T14:58:30.816Z,30.62
2023-01-08T15:01:20.526Z,28.35
2023-01-08T15:03:52.805Z,35.72
2023-01-08T15:06:28.791Z,31.12
2023-01-08T15:09:00.480Z,26.33
2023-01-08T15:11:35.327Z,22.97
2023-01-08T15:14:15.135Z,22.90
2023-01-08T15:16:43.600Z,28.50
2023-01-08T15:19:30.792Z,28.00
2023-01-08T15:22:02.405Z,22.23
2023-01-08T15:24:41.672Z,25.67
2023-01-08T15:27:19.714Z,21.98
2023-01-08T15:29:53.144Z,30.90
2023-01-08T15:32:29.342Z,26.85
2023-01-08T15:35:01.564Z,29.52
2023-01-08T15:37:31.520Z,27.55
2023-01-08T15:40:00.796Z,26.62
2023-01-08T15:42:52.347Z,25.12
2023-01-08T15:45:29.532Z,23.83
2023-01-08T15:48:01.608Z,26.33
2023-01-08T15:50:40.899Z,28.15
2023-01-08T15:53:36.023Z,31.45
2023-01-08T15:56:08.832Z,21.98
2023-01-08T15:58:45.514Z,26.27
2023-01-08T16:01:14.340Z,24.23
2023-01-08T16:03:44.877Z,27.67
2023-01-08T16:06:13.728Z,24.58
2023-01-08T16:08:46.185Z,23.38
2023-01-08T16:11:16.806Z,23.38
2023-01-08T16:13:46.490Z,24.92
2023-01-08T16:16:17.148Z,23.73
2023-01-08T16:18:47.858Z,21.25
2023-01-08T16:21:15.448Z,18.95
2023-01-08T16:23:42.662Z,22.17
2023-01-08T16:26:17.726Z,18.48
2023-01-08T16:28:45.315Z,23.67
2023-01-08T16:31:13.062Z,18.62
2023-01-08T16:33:43.972Z,20.35
2023-01-08T16:36:16.659Z,21.20
2023-01-08T16:38:49.616Z,28.80
2023-01-08T16:41:20.313Z,21.33
2023-01-08T16:43:49.179Z,20.15
2023-01-08T16:46:19.470Z,16.98
2023-01-08T16:48:51.430Z,22.13
2023-01-08T16:51:22.570Z,17.52
2023-01-08T16:53:56.432Z,17.65
2023-01-08T16:58:59.075Z,16.62
2023-01-08T17:01:28.347Z,18.65
2023-01-08T17:04:00.409Z,17.02
2023-01-08T17:06:30.931Z,18.00
2023-01-08T17:09:01.975Z,16.60
2023-01-08T17:11:33.983Z,18.65
2023-01-08T17:14:06.610Z,20.40
2023-01-08T17:16:35.837Z,19.08
2023-01-08T17:19:04.719Z,17.50
2023-01-08T17:21:34.132Z,18.70
2023-01-08T17:24:02.937Z,20.40
2023-01-08T17:26:31.987Z,23.40
2023-01-08T17:29:04.216Z,25.17
2023-01-08T17:31:40.525Z,20.92
2023-01-08T17:34:17.437Z,19.10
2023-01-08T17:36:46.398Z,22.25
2023-01-08T17:39:18.602Z,26.37
2023-01-08T17:42:10.327Z,19.98
2023-01-08T17:44:38.736Z,18.65
2023-01-08T17:47:09.093Z,25.23
2023-01-08T17:49:37.041Z,17.23
2023-01-08T17:52:10.620Z,16.83
2023-01-08T17:54:39.288Z,21.23
2023-01-08T17:57:09.052Z,21.05
2023-01-08T17:59:37.528Z,23.25
2023-01-08T18:02:16.287Z,15.85
2023-01-08T18:04:46.067Z,15.82
2023-01-08T18:07:15.657Z,13.88
2023-01-08T18:09:47.513Z,16.37
2023-01-08T18:12:16.763Z,18.73
2023-01-08T18:14:50.024Z,17.00
2023-01-08T18:17:20.546Z,19.77
2023-01-08T18:19:48.778Z,22.50
2023-01-08T18:22:17.209Z,17.50
2023-01-08T18:24:47.597Z,22.15
2023-01-08T18:27:15.906Z,16.30
2023-01-08T18:29:46.584Z,16.25
2023-01-08T18:32:20.030Z,13.38
2023-01-08T18:34:49.174Z,15.23
2023-01-08T18:37:23.347Z,19.25
2023-01-08T18:39:52.963Z,15.55
2023-01-08T18:42:28.132Z,15.38
2023-01-08T18:44:58.609Z,17.27
2023-01-08T18:47:28.983Z,15.60
2023-01-08T18:50:03.096Z,15.45
2023-01-08T18:52:32.097Z,16.80
2023-01-08T18:54:59.619Z,15.68
2023-01-08T18:57:30.140Z,16.77
2023-01-08T18:59:58.679Z,17.02
2023-01-08T19:02:29.069Z,15.90
2023-01-08T19:04:56.973Z,17.92
2023-01-08T19:07:27.538Z,18.05
2023-01-08T19:10:00.390Z,16.05
2023-01-08T19:12:31.988Z,14.63
2023-01-08T19:14:59.786Z,17.50
2023-01-08T19:17:30.985Z,15.68
2023-01-08T19:20:03.145Z,13.73
2023-01-08T19:22:32.640Z,12.95
2023-01-08T19:25:00.295Z,16.40
2023-01-08T19:27:29.713Z,16.73
2023-01-08T19:29:57.075Z,18.27
2023-01-08T19:32:26.619Z,16.90
2023-01-08T19:34:54.081Z,18.15
2023-01-08T19:37:21.841Z,15.18
2023-01-08T19:39:50.693Z,13.50
2023-01-08T19:42:37.409Z,16.75
2023-01-08T19:45:05.679Z,15.75
2023-01-08T19:47:33.428Z,16.17
2023-01-08T19:50:02.566Z,17.87
2023-01-08T19:52:33.651Z,15.45
2023-01-08T19:55:02.589Z,21.05
2023-01-08T19:57:33.376Z,16.33
2023-01-08T20:00:00.542Z,20.90
2023-01-08T20:02:29.062Z,16.12
2023-01-08T20:04:56.871Z,18.12
2023-01-08T20:07:27.254Z,17.10
2023-01-08T20:09:55.466Z,19.55
2023-01-08T20:12:25.907Z,20.17
2023-01-08T20:14:54.859Z,17.33
2023-01-08T20:17:26.563Z,16.48
2023-01-08T20:20:03.891Z,16.67
2023-01-08T20:22:33.411Z,18.80
2023-01-08T20:25:01.272Z,17.95
2023-01-08T20:27:29.675Z,20.25
2023-01-08T20:30:05.074Z,21.98
2023-01-08T20:32:34.496Z,20.60
2023-01-08T20:35:11.450Z,24.52
2023-01-08T20:37:38.657Z,20.70
2023-01-08T20:40:14.359Z,17.52
2023-01-08T20:42:48.323Z,17.67
2023-01-08T20:45:18.005Z,15.70
2023-01-08T20:47:45.401Z,19.08
2023-01-08T20:50:19.933Z,18.25
2023-01-08T20:52:52.412Z,17.73
2023-01-08T20:55:25.333Z,17.87
2023-01-08T20:57:53.944Z,16.50
2023-01-08T21:00:27.262Z,19.67
2023-01-08T21:03:01.218Z,18.17
2023-01-08T21:05:30.265Z,17.87
2023-01-08T21:08:00.330Z,17.98
2023-01-08T21:10:28.168Z,14.40
2023-01-08T21:12:58.097Z,19.95
2023-01-08T21:15:28.586Z,15.85
2023-01-08T21:18:01.776Z,20.23
2023-01-08T21:20:29.903Z,21.45
2023-01-08T21:23:01.264Z,18.37
2023-01-08T21:25:35.013Z,21.73
2023-01-08T21:28:05.226Z,14.50
2023-01-08T21:30:33.994Z,18.42
2023-01-08T21:33:03.479Z,15.98
2023-01-08T21:35:34.458Z,15.10
2023-01-08T21:38:03.843Z,17.98
2023-01-08T21:40:34.362Z,19.90
2023-01-08T21:43:21.234Z,17.95
2023-01-08T21:46:05.466Z,17.73
2023-01-08T21:48:39.360Z,18.17
2023-01-08T21:51:31.660Z,18.50
2023-01-08T21:54:07.846Z,15.98
2023-01-08T21:56:41.216Z,16.48
2023-01-08T21:59:11.356Z,17.00
2023-01-08T22:01:42.017Z,18.55
2023-01-08T22:04:17.425Z,18.67
2023-01-08T22:06:47.729Z,15.48
2023-01-08T22:09:16.517Z,18.50
2023-01-08T22:11:45.248Z,17.60
2023-01-08T22:14:17.199Z,17.90
2023-01-08T22:16:48.624Z,18.75
2023-01-08T22:19:23.079Z,21.98
2023-01-08T22:21:53.818Z,18.60
2023-01-08T22:24:22.784Z,21.15
2023-01-08T22:26:52.451Z,17.83
2023-01-08T22:29:21.733Z,18.45
2023-01-08T22:31:54.667Z,16.62
2023-01-08T22:34:25.887Z,20.77
2023-01-08T22:36:56.464Z,21.20
2023-01-08T22:39:36.686Z,19.87
2023-01-08T22:42:05.753Z,21.58
2023-01-08T22:44:37.751Z,17.80
2023-01-08T22:47:09.396Z,17.00
2023-01-08T22:49:39.690Z,19.70
2023-01-08T22:52:15.497Z,21.62
2023-01-08T22:54:48.590Z,21.67
2023-01-08T22:57:25.048Z,21.40
2023-01-08T22:59:53.960Z,22.35
2023-01-08T23:02:28.533Z,23.33
2023-01-08T23:07:29.473Z,18.50
2023-01-08T23:10:00.360Z,16.67
2023-01-08T23:12:27.567Z,20.15
2023-01-08T23:14:57.849Z,28.87
2023-01-08T23:17:27.276Z,23.83
2023-01-08T23:19:54.795Z,28.02
2023-01-08T23:22:23.414Z,30.27
2023-01-08T23:24:57.059Z,29.00
2023-01-08T23:27:26.975Z,25.58
2023-01-08T23:29:56.773Z,23.77
2023-01-08T23:32:34.900Z,26.08
2023-01-08T23:35:07.411Z,24.63
2023-01-08T23:37:36.312Z,24.33
2023-01-08T23:40:07.016Z,24.20
2023-01-08T23:42:34.819Z,25.02
2023-01-08T23:45:01.965Z,21.85
2023-01-08T23:47:30.640Z,19.23
2023-01-08T23:50:02.196Z,16.98
2023-01-08T23:52:33.194Z,23.02
2023-01-08T23:55:01.148Z,16.35
2023-01-08T23:57:30.265Z,16.73
